Shoukeimaruno.3 — JI3587 — position and weather

sailwx.info

Track history (hours):
 
Tides and Currents Weather Stations Pressure Air Temp Water Temp Dewpoint Dewpoint Depression Visibility Wind Speed Wind Dir Waves Ship Positions

Shoukeimaruno.3

Last reported at 2016-Dec-07 07:31 UTC. Time now 2016-Dec-09 04:01 UTC.
Position N 35°10' E 139°45'.

Length 77 m; draft 4.5 m.

Type: Cargo ship. MMSI: 431300325.

Date/timePositionNaut miles runAvg speedWind from/ knotsBaromVisibWave heightAir tempDewpointWater temp
2016-Dec-07 07:31N 35°10' E 139°45'1111.6
2016-Dec-07 06:33N 35°21' E 139°42'1211.6
2016-Dec-07 05:33N 35°30' E 139°52'11 0.9
2016-Dec-06 18:16N 35°34' E 140°03'0 0.0
2016-Dec-06 15:19N 35°34' E 140°03'0 0.0
2016-Dec-06 11:19N 35°34' E 140°03'0 0.0
2016-Dec-06 09:28N 35°34' E 140°03'0 0.0
2016-Dec-06 04:18N 35°34' E 140°03'0 0.0
2016-Dec-05 20:32N 35°34' E 140°03'8 7.9
2016-Dec-05 19:33N 35°31' E 139°55'1212.2
2016-Dec-05 18:34N 35°22' E 139°45'1311.2
2016-Dec-05 17:25N 35°09' E 139°47'8 0.2
2016-Dec-03 17:32N 35°02' E 139°45'1212.4
2016-Dec-03 16:33N 35°14' E 139°46'1111.0
2016-Dec-03 15:33N 35°24' E 139°43'6 6.0
2016-Dec-03 14:33N 35°30' E 139°44'0 0.0
2016-Dec-03 13:32N 35°30' E 139°44'0 0.0
2016-Dec-03 12:29N 35°30' E 139°44'0 0.0
2016-Dec-03 11:32N 35°30' E 139°44'0 0.0
2016-Dec-03 10:32N 35°30' E 139°44'0 0.0
2016-Dec-03 09:32N 35°30' E 139°44'0 0.0
2016-Dec-03 08:32N 35°30' E 139°44'0 0.0
2016-Dec-03 07:32N 35°30' E 139°44'0 0.0
2016-Dec-03 06:32N 35°30' E 139°44'0 0.0
2016-Dec-03 05:32N 35°30' E 139°44'0 0.0
2016-Dec-03 04:32N 35°30' E 139°44'0 0.0
2016-Dec-03 03:32N 35°30' E 139°44'0 0.0
2016-Dec-03 02:32N 35°30' E 139°44'0 0.0
2016-Dec-03 01:32N 35°30' E 139°44'0 0.0
2016-Dec-03 00:32N 35°30' E 139°44'0 0.0
2016-Dec-02 23:33N 35°30' E 139°44'0 0.2
2016-Dec-02 22:33N 35°30' E 139°44'4 3.8
2016-Dec-02 21:33N 35°28' E 139°48'0 0.0
2016-Dec-02 20:33N 35°28' E 139°48'0 0.0
2016-Dec-02 19:33N 35°28' E 139°48'0 0.1
2016-Dec-02 18:33N 35°28' E 139°48'0 0.0
2016-Dec-02 17:33N 35°28' E 139°48'0 0.0
2016-Dec-02 16:33N 35°28' E 139°48'0 0.0
2016-Dec-02 15:33N 35°28' E 139°48'4 3.7
2016-Dec-02 14:33N 35°25' E 139°47'1110.6
2016-Dec-02 13:32N 35°14' E 139°47'6 0.2
2016-Dec-01 07:29N 35°08' E 139°44'910.1
2016-Dec-01 06:33N 35°18' E 139°44'7 7.2
2016-Dec-01 05:33N 35°24' E 139°40'0 0.0
2016-Dec-01 04:33N 35°24' E 139°40'0 0.0
2016-Dec-01 03:33N 35°24' E 139°40'0 0.0
2016-Dec-01 02:33N 35°24' E 139°40'0 0.0
2016-Dec-01 01:33N 35°24' E 139°40'0 0.0
2016-Dec-01 00:33N 35°24' E 139°40'1 1.0
2016-Nov-30 23:32N 35°23' E 139°40'0 0.0
2016-Nov-30 22:32N 35°23' E 139°40'0 0.0
2016-Nov-30 21:29N 35°23' E 139°40'0 0.0
2016-Nov-30 20:32N 35°23' E 139°40'0 0.0
2016-Nov-30 19:32N 35°23' E 139°40'0 0.0
2016-Nov-30 18:32N 35°23' E 139°40'0 0.0
2016-Nov-30 17:32N 35°23' E 139°40'2 1.8
2016-Nov-30 16:33N 35°22' E 139°42'1211.8
2016-Nov-30 15:33N 35°11' E 139°47'5 0.2
2016-Nov-29 13:33N 35°06' E 139°44'1211.7
2016-Nov-29 12:33N 35°18' E 139°44'7 6.8
2016-Nov-29 11:32N 35°24' E 139°40'0 0.0
2016-Nov-29 10:33N 35°24' E 139°40'0 0.0
2016-Nov-29 09:33N 35°24' E 139°40'0 0.0
2016-Nov-29 08:33N 35°24' E 139°40'0 0.1
2016-Nov-29 07:34N 35°24' E 139°40'0 0.1
2016-Nov-29 06:33N 35°24' E 139°40'1 0.9
2016-Nov-29 05:34N 35°23' E 139°41'5 4.6
2016-Nov-29 04:33N 35°28' E 139°42'0 0.0
2016-Nov-29 03:33N 35°28' E 139°42'0 0.0
2016-Nov-29 02:33N 35°28' E 139°42'0 0.0
2016-Nov-29 01:33N 35°28' E 139°42'0 0.0
2016-Nov-29 00:33N 35°28' E 139°42'0 0.0
2016-Nov-28 23:33N 35°28' E 139°42'1 0.7
2016-Nov-28 22:33N 35°28' E 139°42'1 1.0
2016-Nov-28 21:31N 35°27' E 139°42'0 0.0
2016-Nov-28 20:31N 35°27' E 139°42'0 0.0
2016-Nov-28 19:31N 35°27' E 139°42'0 0.0
2016-Nov-28 18:31N 35°27' E 139°42'0 0.0
2016-Nov-28 17:31N 35°27' E 139°42'0 0.1
2016-Nov-28 16:31N 35°27' E 139°42'0 0.0
2016-Nov-28 15:31N 35°27' E 139°42'0 0.0
2016-Nov-28 14:31N 35°27' E 139°42'0 0.0
2016-Nov-28 13:31N 35°27' E 139°42'0 0.0
2016-Nov-28 12:31N 35°27' E 139°42'0 0.0
2016-Nov-28 11:31N 35°27' E 139°42'0 0.0
2016-Nov-28 10:31N 35°27' E 139°42'0 0.0
2016-Nov-28 09:31N 35°27' E 139°42'0 0.0
2016-Nov-28 08:31N 35°27' E 139°42'0 0.0
2016-Nov-28 07:31N 35°27' E 139°42'1 0.8
2016-Nov-28 06:33N 35°26' E 139°43'1010.4
2016-Nov-28 05:33N 35°16' E 139°46'1010.0
2016-Nov-28 04:32N 35°06' E 139°44'  
Track history (hours):
 
Tides and Currents Weather Stations Pressure Air Temp Water Temp Dewpoint Dewpoint Depression Visibility Wind Speed Wind Dir Waves Ship Positions

Shoukeimaruno.3

Last reported at 2016-Dec-07 07:31 UTC. Time now 2016-Dec-09 04:01 UTC.
Position N 35°10' E 139°45'.

Length 77 m; draft 4.5 m.

Type: Cargo ship. MMSI: 431300325.

Date/timePositionNaut miles runAvg speedWind from/ knotsBaromVisibWave heightAir tempDewpointWater temp
2016-Dec-07 07:31N 35°10' E 139°45'1111.6
2016-Dec-07 06:33N 35°21' E 139°42'1211.6
2016-Dec-07 05:33N 35°30' E 139°52'11 0.9
2016-Dec-06 18:16N 35°34' E 140°03'0 0.0
2016-Dec-06 15:19N 35°34' E 140°03'0 0.0
2016-Dec-06 11:19N 35°34' E 140°03'0 0.0
2016-Dec-06 09:28N 35°34' E 140°03'0 0.0
2016-Dec-06 04:18N 35°34' E 140°03'0 0.0
2016-Dec-05 20:32N 35°34' E 140°03'8 7.9
2016-Dec-05 19:33N 35°31' E 139°55'1212.2
2016-Dec-05 18:34N 35°22' E 139°45'1311.2
2016-Dec-05 17:25N 35°09' E 139°47'8 0.2
2016-Dec-03 17:32N 35°02' E 139°45'1212.4
2016-Dec-03 16:33N 35°14' E 139°46'1111.0
2016-Dec-03 15:33N 35°24' E 139°43'6 6.0
2016-Dec-03 14:33N 35°30' E 139°44'0 0.0
2016-Dec-03 13:32N 35°30' E 139°44'0 0.0
2016-Dec-03 12:29N 35°30' E 139°44'0 0.0
2016-Dec-03 11:32N 35°30' E 139°44'0 0.0
2016-Dec-03 10:32N 35°30' E 139°44'0 0.0
2016-Dec-03 09:32N 35°30' E 139°44'0 0.0
2016-Dec-03 08:32N 35°30' E 139°44'0 0.0
2016-Dec-03 07:32N 35°30' E 139°44'0 0.0
2016-Dec-03 06:32N 35°30' E 139°44'0 0.0
2016-Dec-03 05:32N 35°30' E 139°44'0 0.0
2016-Dec-03 04:32N 35°30' E 139°44'0 0.0
2016-Dec-03 03:32N 35°30' E 139°44'0 0.0
2016-Dec-03 02:32N 35°30' E 139°44'0 0.0
2016-Dec-03 01:32N 35°30' E 139°44'0 0.0
2016-Dec-03 00:32N 35°30' E 139°44'0 0.0
2016-Dec-02 23:33N 35°30' E 139°44'0 0.2
2016-Dec-02 22:33N 35°30' E 139°44'4 3.8
2016-Dec-02 21:33N 35°28' E 139°48'0 0.0
2016-Dec-02 20:33N 35°28' E 139°48'0 0.0
2016-Dec-02 19:33N 35°28' E 139°48'0 0.1
2016-Dec-02 18:33N 35°28' E 139°48'0 0.0
2016-Dec-02 17:33N 35°28' E 139°48'0 0.0
2016-Dec-02 16:33N 35°28' E 139°48'0 0.0
2016-Dec-02 15:33N 35°28' E 139°48'4 3.7
2016-Dec-02 14:33N 35°25' E 139°47'1110.6
2016-Dec-02 13:32N 35°14' E 139°47'6 0.2
2016-Dec-01 07:29N 35°08' E 139°44'910.1
2016-Dec-01 06:33N 35°18' E 139°44'7 7.2
2016-Dec-01 05:33N 35°24' E 139°40'0 0.0
2016-Dec-01 04:33N 35°24' E 139°40'0 0.0
2016-Dec-01 03:33N 35°24' E 139°40'0 0.0
2016-Dec-01 02:33N 35°24' E 139°40'0 0.0
2016-Dec-01 01:33N 35°24' E 139°40'0 0.0
2016-Dec-01 00:33N 35°24' E 139°40'1 1.0
2016-Nov-30 23:32N 35°23' E 139°40'0 0.0
2016-Nov-30 22:32N 35°23' E 139°40'0 0.0
2016-Nov-30 21:29N 35°23' E 139°40'0 0.0
2016-Nov-30 20:32N 35°23' E 139°40'0 0.0
2016-Nov-30 19:32N 35°23' E 139°40'0 0.0
2016-Nov-30 18:32N 35°23' E 139°40'0 0.0
2016-Nov-30 17:32N 35°23' E 139°40'2 1.8
2016-Nov-30 16:33N 35°22' E 139°42'1211.8
2016-Nov-30 15:33N 35°11' E 139°47'5 0.2
2016-Nov-29 13:33N 35°06' E 139°44'1211.7
2016-Nov-29 12:33N 35°18' E 139°44'7 6.8
2016-Nov-29 11:32N 35°24' E 139°40'0 0.0
2016-Nov-29 10:33N 35°24' E 139°40'0 0.0
2016-Nov-29 09:33N 35°24' E 139°40'0 0.0
2016-Nov-29 08:33N 35°24' E 139°40'0 0.1
2016-Nov-29 07:34N 35°24' E 139°40'0 0.1
2016-Nov-29 06:33N 35°24' E 139°40'1 0.9
2016-Nov-29 05:34N 35°23' E 139°41'5 4.6
2016-Nov-29 04:33N 35°28' E 139°42'0 0.0
2016-Nov-29 03:33N 35°28' E 139°42'0 0.0
2016-Nov-29 02:33N 35°28' E 139°42'0 0.0
2016-Nov-29 01:33N 35°28' E 139°42'0 0.0
2016-Nov-29 00:33N 35°28' E 139°42'0 0.0
2016-Nov-28 23:33N 35°28' E 139°42'1 0.7
2016-Nov-28 22:33N 35°28' E 139°42'1 1.0
2016-Nov-28 21:31N 35°27' E 139°42'0 0.0
2016-Nov-28 20:31N 35°27' E 139°42'0 0.0
2016-Nov-28 19:31N 35°27' E 139°42'0 0.0
2016-Nov-28 18:31N 35°27' E 139°42'0 0.0
2016-Nov-28 17:31N 35°27' E 139°42'0 0.1
2016-Nov-28 16:31N 35°27' E 139°42'0 0.0
2016-Nov-28 15:31N 35°27' E 139°42'0 0.0
2016-Nov-28 14:31N 35°27' E 139°42'0 0.0
2016-Nov-28 13:31N 35°27' E 139°42'0 0.0
2016-Nov-28 12:31N 35°27' E 139°42'0 0.0
2016-Nov-28 11:31N 35°27' E 139°42'0 0.0
2016-Nov-28 10:31N 35°27' E 139°42'0 0.0
2016-Nov-28 09:31N 35°27' E 139°42'0 0.0
2016-Nov-28 08:31N 35°27' E 139°42'0 0.0
2016-Nov-28 07:31N 35°27' E 139°42'1 0.8
2016-Nov-28 06:33N 35°26' E 139°43'1010.4
2016-Nov-28 05:33N 35°16' E 139°46'1010.0
2016-Nov-28 04:32N 35°06' E 139°44'  

Dump ship's entire track history